Time;durP1;ratioP1;P1;durP2;ratioP2;P2;SDS_P1;SDS_P2;PMS_P1;PMS_P2;Temp;Humidity;BMP_temperature;BMP_pressure;BME280_temperature;BME280_humidity;BME280_pressure;Samples;Min_cycle;Max_cycle;Signal;HPM_P1;HPM_P2
2022/05/10 00:01:32;;;;;;;11.15;8.73;;;;;;;12.46;91.17;95278.70;1681148;85;21043;-51
2022/05/10 00:04:00;;;;;;;12.53;8.73;;;;;;;12.45;91.12;95278.54;1667281;85;21160;-51
2022/05/10 00:06:28;;;;;;;11.53;8.00;;;;;;;12.43;90.64;95276.84;1653710;86;21125;-51
2022/05/10 00:08:55;;;;;;;14.53;8.53;;;;;;;12.35;90.69;95267.27;1631218;86;21046;-51
2022/05/10 00:11:21;;;;;;;16.90;12.43;;;;;;;12.28;90.93;95268.87;1653753;86;21256;-50
2022/05/10 00:13:48;;;;;;;15.93;11.10;;;;;;;12.25;91.12;95268.38;1630887;86;20986;-53
2022/05/10 00:16:15;;;;;;;18.57;11.90;;;;;;;12.21;91.41;95263.59;1669804;85;21078;-51
2022/05/10 00:18:43;;;;;;;19.02;13.30;;;;;;;12.21;91.34;95260.05;1681375;85;20994;-50
2022/05/10 00:21:10;;;;;;;16.10;11.90;;;;;;;12.15;91.21;95255.73;1657840;85;21078;-52
2022/05/10 00:23:37;;;;;;;14.63;11.35;;;;;;;12.11;91.56;95259.19;1632162;85;21844;-50
2022/05/10 00:26:04;;;;;;;11.55;9.90;;;;;;;12.08;91.87;95255.95;1619680;88;20991;-50
2022/05/10 00:28:30;;;;;;;17.05;11.03;;;;;;;12.06;92.03;95252.87;1641879;85;21094;-52
2022/05/10 00:30:57;;;;;;;13.15;9.63;;;;;;;12.05;91.94;95254.08;1653850;86;21007;-50
2022/05/10 00:33:28;;;;;;;12.43;9.48;;;;;;;12.05;92.13;95247.81;1653744;86;20990;-50
2022/05/10 00:35:56;;;;;;;13.50;10.32;;;;;;;12.06;92.48;95248.73;1653748;86;22034;-51
2022/05/10 00:38:31;;;;;;;13.20;10.08;;;;;;;12.10;93.03;95248.00;1653655;86;21023;-50
2022/05/10 00:41:05;;;;;;;10.40;8.83;;;;;;;12.13;92.89;95243.00;1629694;86;21022;-50
2022/05/10 00:43:37;;;;;;;13.05;9.43;;;;;;;12.12;92.74;95242.05;1653481;86;21051;-50
2022/05/10 00:46:13;;;;;;;11.55;9.88;;;;;;;12.05;92.67;95244.44;1631230;86;21051;-50
2022/05/10 00:48:51;;;;;;;11.75;9.48;;;;;;;12.03;92.92;95245.48;1652489;86;21203;-51
2022/05/10 00:51:40;;;;;;;15.63;10.95;;;;;;;12.01;93.01;95242.41;1655993;85;20994;-51
2022/05/10 00:54:27;;;;;;;14.45;9.70;;;;;;;11.97;93.18;95244.52;1700046;83;20949;-51
2022/05/10 00:57:14;;;;;;;13.78;9.98;;;;;;;11.97;93.50;95245.89;1710499;84;20977;-51
2022/05/10 00:59:55;;;;;;;14.47;9.73;;;;;;;12.00;93.50;95253.27;1710347;84;21521;-51
2022/05/10 01:02:49;;;;;;;13.13;10.53;;;;;;;12.03;93.40;95246.86;1710341;84;22167;-49
2022/05/10 01:05:25;;;;;;;;;;;;;;;12.02;93.34;95245.91;1710212;84;20949;-50
2022/05/10 01:08:12;;;;;;;16.25;11.70;;;;;;;11.98;93.19;95241.12;1710502;83;20142;-49
2022/05/10 01:11:15;;;;;;;16.93;11.05;;;;;;;11.91;93.31;95231.10;1708103;84;21060;-50
2022/05/10 01:13:57;;;;;;;13.70;10.08;;;;;;;11.92;93.29;95229.13;1710302;84;21008;-50
2022/05/10 01:16:24;;;;;;;15.88;10.58;;;;;;;11.88;92.94;95232.00;1695584;84;21394;-50
2022/05/10 01:18:52;;;;;;;16.32;10.95;;;;;;;11.91;93.45;95226.21;1680268;85;21483;-51
2022/05/10 01:21:44;;;;;;;15.28;11.97;;;;;;;11.96;93.70;95226.42;1680358;85;21475;-50
2022/05/10 01:24:34;;;;;;;16.55;10.50;;;;;;;11.99;93.39;95220.61;1654196;86;21086;-51
2022/05/10 01:27:26;;;;;;;14.40;9.45;;;;;;;12.02;93.60;95223.27;1654122;86;21081;-49
2022/05/10 01:30:07;;;;;;;16.35;10.13;;;;;;;12.05;93.35;95218.23;1680218;85;21161;-50
2022/05/10 01:35:51;;;;;;;11.95;9.18;;;;;;;12.11;93.50;95223.34;1680422;85;20994;-51
2022/05/10 01:38:47;;;;;;;11.28;8.68;;;;;;;12.12;92.75;95221.36;1680580;85;21458;-51
2022/05/10 01:41:40;;;;;;;13.30;8.88;;;;;;;12.09;92.09;95225.02;1703488;84;20948;-51
2022/05/10 01:44:35;;;;;;;13.40;9.13;;;;;;;12.07;92.01;95222.69;1710437;84;21274;-50
2022/05/10 01:47:14;;;;;;;11.97;9.50;;;;;;;12.07;91.88;95222.69;1710355;84;21476;-51
2022/05/10 01:50:18;;;;;;;11.97;9.15;;;;;;;12.03;91.56;95223.42;1710155;84;20989;-51
2022/05/10 01:53:05;;;;;;;8.40;7.47;;;;;;;11.99;91.73;95223.38;1695024;83;20981;-51
2022/05/10 01:55:42;;;;;;;10.53;7.37;;;;;;;11.98;91.44;95223.21;1681768;85;21085;-51
2022/05/10 01:58:20;;;;;;;13.75;8.38;;;;;;;11.94;91.00;95224.69;1681014;85;21282;-50
2022/05/10 02:00:54;;;;;;;12.50;7.70;;;;;;;11.87;90.91;95219.42;1677861;85;20981;-50
2022/05/10 02:03:36;;;;;;;9.65;7.65;;;;;;;11.82;91.06;95221.97;1682271;85;26408;-52
2022/05/10 02:06:27;;;;;;;12.30;7.08;;;;;;;11.81;91.34;95218.45;1681937;85;21512;-52
2022/05/10 02:09:17;;;;;;;13.35;9.15;;;;;;;11.82;91.43;95214.48;1682064;85;21022;-50
2022/05/10 02:11:53;;;;;;;10.18;8.58;;;;;;;11.88;91.60;95214.08;1681508;85;21253;-51
2022/05/10 02:14:31;;;;;;;14.65;8.65;;;;;;;11.91;91.46;95213.18;1680305;85;21104;-51
2022/05/10 02:17:05;;;;;;;14.43;9.10;;;;;;;11.90;91.28;95213.64;1681529;84;21034;-52
2022/05/10 02:20:01;;;;;;;11.05;9.65;;;;;;;11.85;91.28;95212.80;1681374;85;21030;-50
2022/05/10 02:22:49;;;;;;;13.68;11.12;;;;;;;11.79;91.29;95213.98;1681874;85;20966;-51
2022/05/10 02:25:19;;;;;;;17.98;9.93;;;;;;;11.79;91.90;95211.83;1681470;85;21279;-51
2022/05/10 02:27:54;;;;;;;13.88;9.50;;;;;;;11.86;92.21;95215.75;1680282;84;20987;-51
2022/05/10 02:30:23;;;;;;;9.08;8.18;;;;;;;11.91;92.02;95220.08;1709788;84;20953;-51
2022/05/10 02:33:09;;;;;;;10.78;8.08;;;;;;;11.90;91.55;95214.40;1682953;84;20981;-53
2022/05/10 02:35:47;;;;;;;13.00;8.05;;;;;;;11.93;91.56;95212.13;1686693;84;21050;-51
2022/05/10 02:38:18;;;;;;;15.15;9.75;;;;;;;11.95;90.94;95208.94;1710500;84;21179;-51
2022/05/10 02:40:45;;;;;;;13.40;9.70;;;;;;;11.92;90.52;95209.83;1710081;84;21434;-52
2022/05/10 02:43:23;;;;;;;22.50;10.60;;;;;;;11.80;90.38;95210.02;1684240;84;20997;-50
2022/05/10 02:45:50;;;;;;;16.35;9.28;;;;;;;11.72;90.39;95204.55;1709953;83;21020;-50
2022/05/10 02:48:27;;;;;;;12.03;7.10;;;;;;;11.64;90.13;95213.49;1710351;84;21052;-51
2022/05/10 02:50:54;;;;;;;16.55;7.00;;;;;;;11.55;89.71;95209.99;1684419;84;21132;-51
2022/05/10 02:53:21;;;;;;;5.85;5.28;;;;;;;11.48;89.36;95204.72;1691349;83;20994;-51
2022/05/10 02:56:01;;;;;;;9.33;5.83;;;;;;;11.38;88.56;95209.94;1680513;85;20986;-52
2022/05/10 02:58:51;;;;;;;5.83;5.03;;;;;;;11.26;87.90;95215.45;1654994;85;20979;-51
2022/05/10 03:01:54;;;;;;;10.43;6.37;;;;;;;11.15;88.04;95214.39;1680486;85;20990;-51
2022/05/10 03:04:21;;;;;;;7.62;6.42;;;;;;;11.04;87.89;95208.45;1680296;84;21262;-50
2022/05/10 03:06:48;;;;;;;9.78;5.75;;;;;;;10.97;88.39;95212.02;1655119;85;21123;-51
2022/05/10 03:09:15;;;;;;;16.77;6.08;;;;;;;10.95;88.58;95219.33;1680498;85;21467;-51
2022/05/10 03:11:42;;;;;;;9.93;5.80;;;;;;;10.88;88.53;95219.54;1680389;85;21078;-51
2022/05/10 03:14:10;;;;;;;8.48;6.03;;;;;;;10.81;88.44;95218.35;1680349;85;21050;-52
2022/05/10 03:16:37;;;;;;;12.35;6.17;;;;;;;10.75;88.42;95222.08;1688024;84;21243;-51
2022/05/10 03:19:04;;;;;;;10.03;6.37;;;;;;;10.66;88.37;95222.54;1710341;84;21012;-50
2022/05/10 03:21:30;;;;;;;12.28;6.30;;;;;;;10.57;88.66;95227.92;1710498;83;21055;-49
2022/05/10 03:23:57;;;;;;;11.53;7.22;;;;;;;10.48;88.96;95220.30;1683799;84;20949;-51
2022/05/10 03:26:26;;;;;;;7.95;5.53;;;;;;;10.40;89.19;95216.80;1682249;85;21065;-52
2022/05/10 03:28:54;;;;;;;7.78;5.42;;;;;;;10.33;89.37;95223.25;1681883;84;21780;-51
2022/05/10 03:31:22;;;;;;;7.80;6.35;;;;;;;10.29;89.34;95214.92;1681810;85;21018;-51
2022/05/10 03:34:53;;;;;;;9.28;5.33;;;;;;;10.26;89.37;95217.95;1681745;85;20998;-53
2022/05/10 03:36:17;;;;;;;8.95;6.50;;;;;;;10.25;89.65;95218.38;1677182;84;21003;-50
2022/05/10 03:38:44;;;;;;;9.70;6.70;;;;;;;10.25;89.81;95217.00;1680558;85;21506;-53
2022/05/10 03:41:10;;;;;;;9.68;6.28;;;;;;;10.26;90.09;95219.91;1692988;84;21128;-52
2022/05/10 03:43:38;;;;;;;6.60;5.92;;;;;;;10.28;90.17;95218.28;1710462;84;20929;-51
2022/05/10 03:46:06;;;;;;;10.03;6.12;;;;;;;10.28;90.09;95214.75;1710383;83;20949;-50
2022/05/10 03:48:32;;;;;;;9.08;6.40;;;;;;;10.27;90.16;95218.71;1710282;84;21532;-50
2022/05/10 03:50:59;;;;;;;12.35;8.50;;;;;;;10.25;90.48;95211.50;1710443;84;20977;-52
2022/05/10 03:53:25;;;;;;;88.80;32.88;;;;;;;10.26;90.59;95214.42;1696062;84;21151;-51
2022/05/10 03:55:52;;;;;;;251.35;83.40;;;;;;;10.26;90.70;95222.08;1687020;84;21589;-52
2022/05/10 03:58:18;;;;;;;98.85;38.10;;;;;;;10.29;90.60;95219.05;1687244;85;20982;-52
2022/05/10 04:00:45;;;;;;;133.78;42.45;;;;;;;10.31;90.45;95216.66;1687348;85;21038;-52
2022/05/10 04:03:12;;;;;;;77.55;29.18;;;;;;;10.34;90.48;95217.92;1687239;85;21077;-51
2022/05/10 04:05:39;;;;;;;50.80;19.27;;;;;;;10.40;90.59;95221.70;1686148;83;22280;-53
2022/05/10 04:08:06;;;;;;;31.60;12.80;;;;;;;10.50;90.41;95228.13;1685698;85;21006;-52
2022/05/10 04:10:34;;;;;;;44.33;16.55;;;;;;;10.56;89.97;95221.63;1685781;85;20986;-51
2022/05/10 04:13:02;;;;;;;32.80;15.00;;;;;;;10.62;89.65;95221.87;1685718;85;21065;-52
2022/05/10 04:15:29;;;;;;;16.97;10.40;;;;;;;10.61;89.09;95220.33;1685892;85;21456;-51
2022/05/10 04:17:55;;;;;;;23.05;9.65;;;;;;;10.61;89.20;95228.00;1687186;83;21586;-50
2022/05/10 04:20:22;;;;;;;14.15;8.78;;;;;;;10.64;89.12;95232.63;1685813;85;21018;-52
2022/05/10 04:22:49;;;;;;;10.35;7.72;;;;;;;10.67;89.05;95226.84;1670084;85;21019;-51
2022/05/10 04:25:23;;;;;;;10.68;8.10;;;;;;;10.69;88.93;95228.57;1651920;86;21530;-52
2022/05/10 04:27:48;;;;;;;12.07;7.85;;;;;;;10.77;89.10;95227.31;1651953;86;20966;-52
2022/05/10 04:30:14;;;;;;;16.75;7.15;;;;;;;10.86;88.95;95219.21;1699494;83;21834;-52
2022/05/10 04:32:41;;;;;;;8.65;6.83;;;;;;;10.92;88.62;95232.59;1717398;83;20992;-50
2022/05/10 04:35:09;;;;;;;10.95;5.72;;;;;;;10.95;87.93;95234.47;1716002;83;21498;-52
2022/05/10 04:37:36;;;;;;;21.87;7.53;;;;;;;10.96;87.15;95229.75;1716031;83;21426;-57
2022/05/10 04:42:50;;;;;;;9.53;6.08;;;;;;;11.09;86.09;95228.55;1687065;83;21283;-50
2022/05/10 04:45:17;;;;;;;13.13;6.67;;;;;;;11.17;85.37;95227.12;1685782;85;21450;-50
2022/05/10 04:47:43;;;;;;;13.38;9.00;;;;;;;11.25;84.92;95232.59;1685682;85;21022;-50
2022/05/10 04:50:10;;;;;;;22.85;10.68;;;;;;;11.26;84.32;95225.88;1685751;85;21105;-51
2022/05/10 04:52:38;;;;;;;14.15;8.25;;;;;;;11.28;84.35;95231.71;1685683;83;20987;-50
2022/05/10 04:55:08;;;;;;;41.70;26.70;;;;;;;11.34;84.25;95231.32;1687217;84;21823;-53
2022/05/10 04:57:38;;;;;;;13.90;10.18;;;;;;;11.43;84.19;95230.08;1687543;85;21489;-51
2022/05/10 05:00:12;;;;;;;17.60;8.50;;;;;;;11.56;84.02;95233.61;1687225;85;20993;-53
2022/05/10 05:02:38;;;;;;;15.93;5.72;;;;;;;11.63;83.48;95229.27;1664890;85;21447;-52
2022/05/10 05:05:07;;;;;;;9.20;6.42;;;;;;;11.66;82.90;95231.14;1687076;83;21076;-51
2022/05/10 05:07:33;;;;;;;13.03;7.87;;;;;;;11.66;82.58;95231.14;1687391;85;21129;-51
2022/05/10 05:10:02;;;;;;;8.03;6.30;;;;;;;11.71;82.42;95237.47;1687478;85;21540;-51
2022/05/10 05:12:32;;;;;;;17.35;11.95;;;;;;;11.77;82.12;95231.58;1687274;85;21132;-54
2022/05/10 05:14:57;;;;;;;19.37;11.97;;;;;;;11.80;81.67;95227.94;1687080;85;21018;-53
2022/05/10 05:17:25;;;;;;;22.75;14.55;;;;;;;11.83;81.52;95228.42;1687301;83;21461;-52
2022/05/10 05:19:52;;;;;;;23.67;14.05;;;;;;;11.86;81.26;95226.16;1687123;85;21434;-52
2022/05/10 05:22:18;;;;;;;25.02;16.25;;;;;;;11.95;81.14;95219.38;1686313;85;21477;-51
2022/05/10 05:24:45;;;;;;;27.85;14.68;;;;;;;12.03;80.63;95217.13;1685585;83;21283;-52
2022/05/10 05:27:11;;;;;;;27.20;14.18;;;;;;;12.04;80.42;95216.69;1682863;83;21139;-54
2022/05/10 05:29:38;;;;;;;28.90;17.35;;;;;;;12.05;80.64;95215.47;1684984;83;21636;-54
2022/05/10 05:32:07;;;;;;;24.30;16.80;;;;;;;12.03;80.65;95214.36;1687295;83;21720;-53
2022/05/10 05:34:35;;;;;;;19.92;12.10;;;;;;;12.00;80.63;95218.80;1684446;83;21112;-54
2022/05/10 05:39:47;;;;;;;18.48;11.55;;;;;;;12.04;80.61;95223.59;1684286;83;22189;-55
2022/05/10 05:42:14;;;;;;;13.60;9.98;;;;;;;12.10;80.51;95216.28;1685054;83;21029;-54
2022/05/10 05:44:41;;;;;;;12.10;7.37;;;;;;;12.16;80.01;95220.03;1669154;83;22437;-55
2022/05/10 05:47:07;;;;;;;10.30;6.92;;;;;;;12.22;79.49;95214.11;1684032;83;21006;-56
2022/05/10 05:49:34;;;;;;;9.93;7.42;;;;;;;12.33;78.96;95210.98;1669193;83;21112;-55
2022/05/10 05:52:01;;;;;;;15.38;9.38;;;;;;;12.41;78.06;95214.43;1661890;83;21053;-54
2022/05/10 05:54:28;;;;;;;17.02;10.40;;;;;;;12.50;77.82;95206.24;1686769;83;21170;-54
2022/05/10 05:57:00;;;;;;;26.82;12.03;;;;;;;12.58;77.43;95197.27;1668364;83;21082;-54
2022/05/10 05:59:27;;;;;;;20.23;11.38;;;;;;;12.63;77.49;95203.58;1660166;83;21037;-54
2022/05/10 06:01:55;;;;;;;24.27;11.22;;;;;;;12.75;77.52;95204.11;1685534;83;21053;-56
2022/05/10 06:04:21;;;;;;;21.40;10.65;;;;;;;12.96;77.19;95205.36;1684574;83;21072;-54
2022/05/10 06:06:50;;;;;;;21.68;11.97;;;;;;;13.16;76.75;95198.87;1684763;83;21080;-56
2022/05/10 06:09:22;;;;;;;21.02;10.38;;;;;;;13.35;75.57;95199.13;1683712;83;21258;-55
2022/05/10 06:11:47;;;;;;;16.87;9.80;;;;;;;13.47;74.63;95196.88;1683055;83;21980;-53
2022/05/10 06:14:13;;;;;;;30.08;9.45;;;;;;;13.58;73.48;95199.38;1684502;83;21014;-54
2022/05/10 06:16:41;;;;;;;17.52;10.15;;;;;;;13.69;72.21;95194.81;1683116;83;21076;-56
2022/05/10 06:19:12;;;;;;;17.17;8.60;;;;;;;13.74;71.65;95196.97;1684575;83;21037;-53
2022/05/10 06:21:41;;;;;;;15.40;8.53;;;;;;;13.79;71.44;95197.77;1685013;83;21029;-57
2022/05/10 06:24:10;;;;;;;10.00;6.37;;;;;;;13.89;70.94;95193.79;1681340;83;21076;-54
2022/05/10 06:26:37;;;;;;;6.65;5.47;;;;;;;14.00;67.85;95191.37;1681204;83;21026;-58
2022/05/10 06:29:03;;;;;;;6.58;4.62;;;;;;;14.11;65.69;95188.91;1682142;83;21619;-57
2022/05/10 06:31:31;;;;;;;9.03;5.37;;;;;;;14.25;63.86;95196.05;1685809;83;20979;-55
2022/05/10 06:33:59;;;;;;;10.50;6.00;;;;;;;14.37;64.45;95192.98;1678069;85;21238;-55
2022/05/10 06:36:27;;;;;;;10.48;6.47;;;;;;;14.51;65.11;95195.91;1683750;83;21148;-55
2022/05/10 06:38:54;;;;;;;9.48;5.95;;;;;;;14.64;65.62;95198.67;1653260;85;21081;-52
2022/05/10 06:41:20;;;;;;;12.03;6.40;;;;;;;14.73;65.09;95191.76;1683899;83;21045;-55
2022/05/10 06:43:47;;;;;;;10.32;6.55;;;;;;;14.79;64.84;95184.36;1688736;83;21050;-54
2022/05/10 06:46:19;;;;;;;8.93;6.72;;;;;;;14.88;64.35;95190.50;1685031;83;21145;-50
2022/05/10 06:48:47;;;;;;;10.88;5.55;;;;;;;14.98;63.11;95183.73;1684708;83;21046;-52
2022/05/10 06:51:17;;;;;;;8.48;5.97;;;;;;;15.03;62.93;95181.08;1684501;83;21561;-52
2022/05/10 06:53:44;;;;;;;10.50;6.10;;;;;;;15.09;63.62;95177.85;1682327;83;21063;-50
2022/05/10 06:56:11;;;;;;;9.83;6.05;;;;;;;15.22;63.12;95182.57;1682029;83;21985;-51
2022/05/10 06:58:37;;;;;;;10.65;5.90;;;;;;;15.39;62.81;95182.40;1663591;83;21085;-52
2022/05/10 07:01:07;;;;;;;10.88;5.22;;;;;;;15.60;62.50;95182.02;1682955;83;21038;-52
2022/05/10 07:03:34;;;;;;;8.88;5.33;;;;;;;15.78;62.97;95173.02;1660076;85;20996;-51
2022/05/10 07:06:04;;;;;;;11.08;4.72;;;;;;;16.00;61.95;95176.28;1681802;83;21061;-51
2022/05/10 07:08:30;;;;;;;6.37;4.50;;;;;;;16.23;59.50;95169.95;1658315;85;21088;-53
2022/05/10 07:10:57;;;;;;;5.60;4.70;;;;;;;16.46;59.99;95169.20;1684978;83;21582;-53
2022/05/10 07:13:26;;;;;;;7.22;4.28;;;;;;;16.66;58.10;95172.12;1687706;83;21604;-53
2022/05/10 07:15:54;;;;;;;6.53;4.45;;;;;;;16.78;57.03;95163.55;1688458;83;21509;-54
2022/05/10 07:18:20;;;;;;;9.13;4.25;;;;;;;16.95;55.06;95159.67;1662557;85;21065;-51
2022/05/10 07:20:48;;;;;;;9.63;4.60;;;;;;;17.01;54.26;95164.70;1680716;85;21074;-54
2022/05/10 07:23:15;;;;;;;11.75;5.62;;;;;;;17.03;54.28;95159.42;1684380;83;21237;-53
2022/05/10 07:25:45;;;;;;;11.75;5.35;;;;;;;17.02;53.10;95164.23;1663139;85;21100;-53
2022/05/10 07:28:11;;;;;;;8.90;5.03;;;;;;;17.05;53.89;95161.09;1659538;83;21053;-53
2022/05/10 07:30:39;;;;;;;8.38;4.50;;;;;;;17.20;53.82;95164.66;1680976;83;21086;-55
2022/05/10 07:33:06;;;;;;;5.87;4.00;;;;;;;17.38;55.21;95160.31;1682422;83;21072;-56
2022/05/10 07:38:22;;;;;;;4.90;4.40;;;;;;;17.60;53.47;95155.88;1656395;83;20918;-62
2022/05/10 07:40:49;;;;;;;6.53;4.20;;;;;;;17.63;53.48;95153.52;1682941;83;21063;-60
2022/05/10 07:43:18;;;;;;;10.20;5.20;;;;;;;17.67;53.71;95154.72;1683085;83;21017;-58
2022/05/10 07:45:51;;;;;;;9.38;4.12;;;;;;;17.81;53.40;95156.72;1678175;84;21086;-57
2022/05/10 07:48:19;;;;;;;5.85;3.72;;;;;;;17.92;52.25;95152.07;1683628;83;21995;-54
2022/05/10 07:50:50;;;;;;;4.00;3.60;;;;;;;18.01;52.03;95149.79;1676994;83;21608;-57
2022/05/10 07:53:19;;;;;;;5.80;3.47;;;;;;;18.21;52.02;95154.73;1633647;83;21047;-60
2022/05/10 07:55:46;;;;;;;5.62;3.33;;;;;;;18.38;50.25;95150.18;1681756;83;21064;-55
2022/05/10 07:58:14;;;;;;;3.40;3.10;;;;;;;18.31;49.76;95156.93;1684368;83;21316;-57
2022/05/10 08:00:42;;;;;;;8.85;3.22;;;;;;;18.29;48.89;95156.66;1677162;83;21125;-59
2022/05/10 08:03:16;;;;;;;5.83;3.37;;;;;;;18.28;49.44;95163.48;1685099;83;21112;-57
2022/05/10 08:05:44;;;;;;;4.50;3.08;;;;;;;18.32;47.89;95157.06;1684376;83;21557;-55
2022/05/10 08:08:13;;;;;;;7.65;3.35;;;;;;;18.37;49.08;95157.79;1682410;83;21116;-56
2022/05/10 08:10:43;;;;;;;5.67;3.50;;;;;;;18.45;48.40;95156.10;1677178;83;21104;-56
2022/05/10 08:13:14;;;;;;;8.25;3.20;;;;;;;18.50;48.24;95156.79;1680531;83;48628;-59
2022/05/10 08:15:40;;;;;;;4.97;3.33;;;;;;;18.57;48.32;95154.21;1683644;83;21955;-56
2022/05/10 08:18:07;;;;;;;4.37;3.20;;;;;;;18.66;47.67;95146.47;1675946;83;21065;-56
2022/05/10 08:20:35;;;;;;;5.75;3.20;;;;;;;18.83;47.43;95157.83;1671793;85;21001;-52
2022/05/10 08:23:02;;;;;;;5.83;3.30;;;;;;;18.89;45.16;95156.64;1660818;85;21082;-57
2022/05/10 08:25:30;;;;;;;6.60;3.60;;;;;;;18.95;45.17;95155.27;1682610;83;21620;-53
2022/05/10 08:27:57;;;;;;;9.85;3.52;;;;;;;18.97;45.07;95149.36;1683240;83;20993;-53
2022/05/10 08:30:24;;;;;;;7.05;3.42;;;;;;;19.12;46.16;95143.05;1644513;83;21075;-56
2022/05/10 08:32:51;;;;;;;3.98;3.05;;;;;;;19.21;44.87;95144.28;1680721;83;21018;-59
2022/05/10 08:35:18;;;;;;;8.48;3.15;;;;;;;19.31;44.28;95135.11;1662228;83;20973;-59
2022/05/10 08:37:45;;;;;;;6.35;2.95;;;;;;;19.41;45.14;95144.21;1659612;85;21812;-52
2022/05/10 08:40:26;;;;;;;6.22;2.58;;;;;;;19.40;44.82;95137.10;1682516;83;21005;-56
2022/05/10 08:42:54;;;;;;;4.87;3.17;;;;;;;19.35;44.74;95143.41;1682741;83;21039;-54
2022/05/10 08:45:21;;;;;;;7.55;2.60;;;;;;;19.24;43.62;95141.94;1678317;83;21030;-56
2022/05/10 08:47:48;;;;;;;4.42;2.95;;;;;;;19.18;44.45;95136.91;1692507;83;21474;-53
2022/05/10 08:50:17;;;;;;;5.75;2.70;;;;;;;19.27;43.69;95132.56;1660256;83;21564;-55
2022/05/10 08:52:46;;;;;;;3.98;2.65;;;;;;;19.42;44.42;95131.04;1678063;83;21026;-55
2022/05/10 08:55:21;;;;;;;4.58;2.52;;;;;;;19.56;44.37;95137.87;1680596;83;21101;-55
2022/05/10 08:57:52;;;;;;;9.35;2.90;;;;;;;19.57;44.20;95131.67;1680250;83;21462;-53
2022/05/10 09:00:44;;;;;;;6.40;3.30;;;;;;;19.58;44.18;95133.95;1681067;83;21109;-53
2022/05/10 09:03:25;;;;;;;5.78;3.27;;;;;;;19.60;43.38;95130.67;1680223;83;22776;-56
2022/05/10 09:05:52;;;;;;;12.57;3.63;;;;;;;19.56;44.55;95123.91;1684209;83;21076;-57
2022/05/10 09:08:32;;;;;;;8.18;2.95;;;;;;;19.76;44.68;95130.03;1660736;83;21013;-58
2022/05/10 09:11:04;;;;;;;5.47;3.00;;;;;;;19.91;43.65;95133.44;1677223;83;21001;-55
2022/05/10 09:13:37;;;;;;;10.25;3.40;;;;;;;19.94;43.42;95129.00;1678814;83;21597;-55
2022/05/10 09:16:06;;;;;;;4.65;3.12;;;;;;;19.98;43.62;95125.37;1678439;83;21105;-60
2022/05/10 09:18:44;;;;;;;13.78;3.60;;;;;;;20.10;44.06;95128.38;1683746;83;21070;-58
2022/05/10 09:21:35;;;;;;;4.83;2.80;;;;;;;20.34;42.71;95129.52;1661424;85;21084;-62
2022/05/10 09:24:30;;;;;;;7.30;2.87;;;;;;;20.51;43.58;95114.98;1682642;83;21061;-52
2022/05/10 09:27:05;;;;;;;11.55;3.72;;;;;;;20.59;41.11;95122.26;1685169;83;21013;-53
2022/05/10 09:29:47;;;;;;;5.75;3.00;;;;;;;20.55;40.27;95117.55;1673611;83;21259;-54
2022/05/10 09:35:27;;;;;;;7.30;3.05;;;;;;;20.51;40.71;95113.59;1651437;85;21056;-54
2022/05/10 09:38:04;;;;;;;7.05;2.67;;;;;;;20.46;39.99;95112.16;1618276;87;21101;-53
2022/05/10 09:40:43;;;;;;;7.70;2.55;;;;;;;20.45;39.78;95112.03;1619382;87;21604;-54
2022/05/10 09:43:29;;;;;;;5.55;3.15;;;;;;;20.46;39.51;95109.36;1629642;86;21222;-52
2022/05/10 09:46:17;;;;;;;8.08;2.80;;;;;;;20.58;40.92;95108.16;1634400;86;21424;-55
2022/05/10 09:48:43;;;;;;;3.27;2.27;;;;;;;20.74;39.99;95108.84;1632270;86;21044;-53
2022/05/10 09:51:39;;;;;;;7.83;3.27;;;;;;;20.90;39.79;95099.77;1608639;87;21037;-52
2022/05/10 09:54:19;;;;;;;5.40;2.45;;;;;;;21.13;39.69;95099.92;1633359;86;21033;-52
2022/05/10 09:56:52;;;;;;;7.12;3.05;;;;;;;21.50;41.66;95099.05;1632196;86;21232;-54
2022/05/10 09:59:24;;;;;;;8.05;2.70;;;;;;;21.86;37.61;95098.78;1646817;85;21034;-56
2022/05/10 10:01:56;;;;;;;3.85;2.60;;;;;;;22.02;37.04;95095.84;1617602;87;21046;-56
2022/05/10 10:04:37;;;;;;;5.00;2.50;;;;;;;21.95;36.22;95091.52;1605916;88;21090;-56
2022/05/10 10:07:17;;;;;;;6.40;2.40;;;;;;;21.92;35.35;95087.57;1613921;86;21068;-55
2022/05/10 10:09:51;;;;;;;8.65;2.60;;;;;;;21.92;35.28;95086.17;1621575;87;21187;-54
2022/05/10 10:12:38;;;;;;;5.87;2.47;;;;;;;21.97;35.34;95088.97;1630311;86;21442;-55
2022/05/10 10:15:32;;;;;;;10.88;3.20;;;;;;;22.02;37.50;95079.03;1640731;86;21629;-54
2022/05/10 10:18:08;;;;;;;6.00;3.00;;;;;;;22.04;36.54;95086.41;1627335;86;21120;-55
2022/05/10 10:20:55;;;;;;;3.42;2.33;;;;;;;22.03;34.72;95083.48;1635430;86;21123;-53
2022/05/10 10:23:32;;;;;;;5.20;2.12;;;;;;;21.99;34.93;95077.26;1641761;85;21223;-55
2022/05/10 10:26:34;;;;;;;6.03;2.45;;;;;;;22.36;37.30;95079.17;1681740;84;21571;-53
2022/05/10 10:29:24;;;;;;;;;;;;;;;22.61;36.32;95075.27;1681286;84;21604;-54
2022/05/10 10:31:55;;;;;;;4.50;2.50;;;;;;;22.72;35.80;95072.41;1650273;84;20179;-55
2022/05/10 10:34:33;;;;;;;8.63;2.45;;;;;;;23.07;36.60;95071.68;1688386;84;20993;-53
2022/05/10 10:37:11;;;;;;;4.78;2.55;;;;;;;23.43;34.93;95071.17;1682479;84;21232;-53
2022/05/10 10:40:06;;;;;;;9.63;2.70;;;;;;;23.72;33.62;95071.83;1643615;85;21068;-55
2022/05/10 10:42:49;;;;;;;3.70;2.20;;;;;;;24.02;34.43;95073.34;1675340;84;21037;-53
2022/05/10 10:45:16;;;;;;;;;;;;;;;24.26;34.61;95066.95;1684254;84;21018;-52
2022/05/10 10:48:03;;;;;;;9.00;2.45;;;;;;;24.62;32.65;95062.08;1686095;84;20177;-58
2022/05/10 10:50:32;;;;;;;5.62;2.60;;;;;;;24.83;32.87;95059.48;1679671;84;21250;-54
2022/05/10 10:52:59;;;;;;;6.97;2.40;;;;;;;25.26;32.26;95055.93;1684897;84;21689;-56
2022/05/10 10:55:47;;;;;;;7.55;2.35;;;;;;;25.66;32.04;95054.79;1690259;83;21501;-57
2022/05/10 10:58:58;;;;;;;9.98;4.17;;;;;;;25.98;28.82;95049.98;1687716;83;21064;-56
2022/05/10 11:01:35;;;;;;;4.17;2.37;;;;;;;26.14;28.56;95048.17;1684555;83;20949;-56
2022/05/10 11:04:33;;;;;;;6.75;2.37;;;;;;;26.45;29.99;95048.05;1659507;85;22287;-55
2022/05/10 11:07:00;;;;;;;6.58;2.15;;;;;;;26.64;29.03;95040.91;1662923;83;21600;-56
2022/05/10 11:09:49;;;;;;;4.67;2.30;;;;;;;26.89;29.64;95042.91;1667497;83;20989;-57
2022/05/10 11:12:30;;;;;;;4.87;2.10;;;;;;;26.86;28.27;95036.20;1683048;83;21118;-59
2022/05/10 11:15:12;;;;;;;3.85;2.40;;;;;;;26.90;26.78;95026.09;1664794;83;21100;-53
2022/05/10 11:18:16;;;;;;;;;;;;;;;27.05;26.87;95023.41;1669155;83;21207;-54
2022/05/10 11:21:07;;;;;;;5.12;1.98;;;;;;;27.36;29.59;95018.89;1680938;83;20227;-55
2022/05/10 11:23:42;;;;;;;7.92;2.10;;;;;;;27.57;28.97;95024.64;1687869;83;21167;-55
2022/05/10 11:26:38;;;;;;;9.98;3.80;;;;;;;27.91;27.90;95025.34;1684181;83;21123;-53
2022/05/10 11:29:32;;;;;;;8.43;2.17;;;;;;;28.16;26.80;95015.14;1677876;83;22318;-53
2022/05/10 11:32:17;;;;;;;5.67;2.90;;;;;;;28.32;26.84;95014.72;1684792;83;21167;-54
2022/05/10 11:35:26;;;;;;;8.08;2.10;;;;;;;28.46;26.62;95002.62;1686507;83;21078;-58
2022/05/10 11:37:58;;;;;;;4.45;2.25;;;;;;;28.80;26.72;95003.91;1678376;83;21061;-55
2022/05/10 11:40:36;;;;;;;4.70;2.20;;;;;;;28.99;26.50;94998.71;1682376;83;21020;-52
2022/05/10 11:43:20;;;;;;;5.50;2.55;;;;;;;29.11;24.91;94992.06;1680147;83;21077;-58
2022/05/10 11:46:29;;;;;;;6.25;2.92;;;;;;;29.22;25.95;94987.45;1678593;83;22194;-56
2022/05/10 11:49:33;;;;;;;7.47;2.30;;;;;;;29.51;25.44;94983.19;1684395;83;21044;-55
2022/05/10 11:52:38;;;;;;;9.28;2.17;;;;;;;29.97;23.91;94981.94;1693468;83;21109;-55
2022/05/10 11:55:16;;;;;;;3.47;1.80;;;;;;;29.88;22.66;94969.75;1668496;83;21026;-59
2022/05/10 11:57:43;;;;;;;4.10;2.00;;;;;;;29.58;23.04;94971.08;1676028;83;21061;-54
2022/05/10 12:00:33;;;;;;;6.72;2.45;;;;;;;29.42;23.67;94967.45;1671864;84;21120;-56
2022/05/10 12:03:02;;;;;;;4.30;2.10;;;;;;;29.52;25.79;94960.59;1682147;83;21029;-55
2022/05/10 12:05:35;;;;;;;3.58;1.82;;;;;;;29.63;25.36;94955.94;1680412;84;21087;-54
2022/05/10 12:08:19;;;;;;;5.65;2.15;;;;;;;29.68;24.83;94957.85;1692845;84;21576;-53
2022/05/10 12:10:47;;;;;;;6.30;1.92;;;;;;;29.88;25.49;94952.64;1685072;84;21101;-54
2022/05/10 12:22:50;;;;;;;2.83;1.72;;;;;;;30.88;23.29;94937.79;1676654;84;21063;-54
2022/05/10 12:25:42;;;;;;;4.70;1.90;;;;;;;30.73;22.97;94930.02;1677089;84;21281;-56